createdAt,value
2022-08-02T05:26:52.384Z,19.40
2022-08-02T05:44:45.269Z,19.60
2022-08-02T05:49:38.878Z,20.00
2022-08-02T05:54:44.045Z,20.20
2022-08-02T05:59:48.467Z,20.40
2022-08-02T06:04:53.019Z,20.40
2022-08-02T06:09:48.705Z,20.70
2022-08-02T06:14:43.626Z,20.90
2022-08-02T06:19:51.608Z,21.10
2022-08-02T06:24:51.803Z,21.30
2022-08-02T06:29:47.137Z,21.40
2022-08-02T06:34:41.376Z,21.30
2022-08-02T06:39:44.964Z,21.30
2022-08-02T06:44:47.969Z,21.30
2022-08-02T06:49:52.510Z,21.50
2022-08-02T06:54:48.229Z,21.70
2022-08-02T06:59:43.254Z,21.80
2022-08-02T07:04:36.785Z,21.80
2022-08-02T07:09:30.373Z,21.90
2022-08-02T07:14:23.880Z,22.10
2022-08-02T07:19:18.881Z,22.20
2022-08-02T07:24:12.581Z,22.10
2022-08-02T07:29:06.144Z,22.10
2022-08-02T07:33:59.597Z,22.30
2022-08-02T07:38:54.544Z,22.60
2022-08-02T07:43:48.008Z,22.80
2022-08-02T07:48:41.685Z,23.20
2022-08-02T07:53:51.029Z,23.40
2022-08-02T07:58:50.228Z,23.80
2022-08-02T08:03:43.853Z,24.10
2022-08-02T08:08:37.510Z,24.30
2022-08-02T08:13:31.200Z,24.50
2022-08-02T08:18:26.254Z,24.60
2022-08-02T08:23:19.933Z,24.90
2022-08-02T08:28:13.527Z,25.30
2022-08-02T08:33:07.022Z,25.50
2022-08-02T08:38:06.962Z,25.80
2022-08-02T08:43:01.105Z,26.20
2022-08-02T08:48:01.572Z,26.60
2022-08-02T08:53:02.907Z,26.80
2022-08-02T08:58:00.840Z,26.60
2022-08-02T09:02:54.968Z,26.30
2022-08-02T09:07:50.106Z,26.20
2022-08-02T09:12:43.727Z,26.20
2022-08-02T09:17:52.048Z,26.30
2022-08-02T09:22:45.673Z,26.60
2022-08-02T09:27:41.094Z,26.80
2022-08-02T09:32:48.275Z,26.90
2022-08-02T09:37:43.632Z,27.20
2022-08-02T09:42:39.495Z,26.90
2022-08-02T09:47:37.504Z,26.50
2022-08-02T09:52:37.161Z,25.80
2022-08-02T09:57:38.689Z,25.10
2022-08-02T10:02:32.486Z,24.30
2022-08-02T10:07:27.066Z,23.60
2022-08-02T10:12:23.296Z,23.20
2022-08-02T10:17:17.467Z,22.10
2022-08-02T10:22:13.605Z,21.70
2022-08-02T10:27:08.921Z,21.90
2022-08-02T10:32:09.394Z,22.10
2022-08-02T10:37:05.307Z,22.20
2022-08-02T10:41:59.045Z,22.40
2022-08-02T10:46:52.573Z,22.60
2022-08-02T10:52:07.614Z,23.00
2022-08-02T10:57:02.625Z,23.20
2022-08-02T11:02:02.353Z,23.30
2022-08-02T11:07:15.231Z,23.50
2022-08-02T11:12:11.033Z,24.20
2022-08-02T11:17:15.824Z,24.70
2022-08-02T11:22:14.009Z,25.00
2022-08-02T11:27:11.870Z,25.20
2022-08-02T11:32:06.527Z,25.50
2022-08-02T11:37:00.223Z,26.10
2022-08-02T11:41:57.316Z,26.70
2022-08-02T11:46:56.955Z,27.10
2022-08-02T11:52:00.473Z,28.20
2022-08-02T11:56:55.751Z,29.00
2022-08-02T12:01:49.302Z,29.70
2022-08-02T12:06:42.990Z,30.50
2022-08-02T12:11:38.960Z,30.90
2022-08-02T12:16:55.057Z,31.20
2022-08-02T12:21:49.024Z,31.50
2022-08-02T12:26:46.179Z,30.70
2022-08-02T12:31:57.512Z,30.00
2022-08-02T12:37:00.286Z,29.20
2022-08-02T12:41:59.445Z,28.80
2022-08-02T12:47:02.373Z,28.80
2022-08-02T12:52:03.427Z,28.70
2022-08-02T12:57:00.229Z,29.10
2022-08-02T13:01:53.877Z,29.60
2022-08-02T13:06:48.821Z,29.50
2022-08-02T13:11:43.173Z,29.60
2022-08-02T13:16:37.347Z,29.80
2022-08-02T13:21:39.760Z,30.30
2022-08-02T13:26:37.683Z,31.00
2022-08-02T13:31:36.586Z,31.00
2022-08-02T13:36:31.245Z,30.60
2022-08-02T13:41:24.907Z,30.70
2022-08-02T13:46:28.592Z,31.60
2022-08-02T13:51:23.513Z,32.30
2022-08-02T13:56:17.135Z,31.60
2022-08-02T14:01:10.932Z,31.50
2022-08-02T14:06:07.100Z,31.80
2022-08-02T14:11:00.753Z,32.10
2022-08-02T14:15:54.421Z,32.30
2022-08-02T14:20:48.236Z,32.60
2022-08-02T14:25:44.139Z,32.60
2022-08-02T14:30:37.652Z,31.90
2022-08-02T14:35:31.346Z,31.70
2022-08-02T14:40:30.969Z,32.40
2022-08-02T14:45:40.442Z,33.00
2022-08-02T14:50:34.714Z,33.30
2022-08-02T14:55:28.341Z,33.70
2022-08-02T15:00:21.892Z,33.40
2022-08-02T15:05:16.878Z,33.00
2022-08-02T15:10:11.057Z,33.20
2022-08-02T15:15:04.794Z,33.70
2022-08-02T15:20:02.960Z,34.30
2022-08-02T15:25:06.163Z,34.50
2022-08-02T15:30:09.372Z,34.70
2022-08-02T15:35:02.992Z,34.40
2022-08-02T15:39:56.701Z,34.20
2022-08-02T15:44:52.544Z,34.20
2022-08-02T15:49:48.815Z,33.80
2022-08-02T15:54:42.436Z,33.40
2022-08-02T15:59:35.974Z,33.40
2022-08-02T16:04:31.243Z,32.60
2022-08-02T16:09:24.980Z,31.40
2022-08-02T16:14:18.517Z,30.50
2022-08-02T16:19:37.485Z,30.10
2022-08-02T16:24:30.232Z,29.70
2022-08-02T16:29:23.856Z,29.20
2022-08-02T16:34:17.694Z,28.90
2022-08-02T16:39:11.923Z,28.80
2022-08-02T16:44:09.013Z,28.60
2022-08-02T16:49:03.205Z,28.60
2022-08-02T16:54:00.454Z,28.70
2022-08-02T16:59:14.948Z,28.40
2022-08-02T17:04:08.828Z,28.10
2022-08-02T17:09:02.782Z,28.00
2022-08-02T17:13:56.274Z,27.90
2022-08-02T17:18:52.760Z,27.90
2022-08-02T17:24:05.747Z,27.80
2022-08-02T17:34:16.679Z,28.50
2022-08-02T17:39:10.364Z,29.20
2022-08-02T17:44:04.545Z,30.20
2022-08-02T17:49:15.909Z,31.40
2022-08-02T17:54:11.773Z,31.60
2022-08-02T17:59:12.917Z,32.30
2022-08-02T18:04:15.044Z,31.00
2022-08-02T18:09:10.664Z,29.40
2022-08-02T18:14:04.813Z,28.30
2022-08-02T18:19:02.995Z,27.50
2022-08-02T18:24:00.476Z,27.00
2022-08-02T18:28:55.943Z,26.60
2022-08-02T18:33:57.984Z,26.10
2022-08-02T18:38:55.199Z,25.90
2022-08-02T18:43:48.868Z,25.70
2022-08-02T18:48:47.834Z,25.40
2022-08-02T18:53:43.006Z,25.20
2022-08-02T18:58:36.982Z,25.00
2022-08-02T19:03:30.579Z,24.80
2022-08-02T19:08:32.366Z,24.60
2022-08-02T19:13:27.366Z,24.40
2022-08-02T19:18:27.020Z,24.30
2022-08-02T19:23:23.979Z,24.10
2022-08-02T19:28:25.814Z,24.00
2022-08-02T19:33:25.249Z,24.00
2022-08-02T19:38:34.574Z,23.90
2022-08-02T19:44:26.159Z,23.80
2022-08-02T19:48:46.005Z,23.60
2022-08-02T19:53:47.179Z,23.40
2022-08-02T19:58:44.820Z,23.30
2022-08-02T20:03:52.193Z,23.20
2022-08-02T20:08:53.482Z,23.20
2022-08-02T20:13:54.538Z,23.00
2022-08-02T20:18:48.381Z,22.90
2022-08-02T20:23:42.369Z,22.80
2022-08-02T20:28:35.924Z,22.60
2022-08-02T20:33:32.035Z,22.40
2022-08-02T20:38:29.772Z,22.30
2022-08-02T20:43:31.204Z,22.20
2022-08-02T20:48:29.771Z,22.10
2022-08-02T22:58:38.702Z,27.90
